aviador You're here:

SCAR Decoded Metar

ARICA in CHILE
Report Time2017-12-11 22:00:00
UTC Time2017-12-11 22:52:20
Flight Rules vfr VFR
Wind200° at 04 kt
W.Decomp.*RWY 20: 4.0 kt HW 0.3 kt RCW
W.Rank200° ranks 2
Current wind is below 200° avg. (8.5)
Visibility9999 m
Phenomena:N/A
Clouds:N/A
Expected CloudBase > 3,600 ft AGL from Temp-Dew spread
CeilingNone
Temp21°C (ISA +6)
Dew Point12°C (57% RH)
AAT20.2°C
QNH1014 hPa
Density Alt1,096 ft
Elevation194 ft
Report Wrong Elevation
Raw Report
SCAR 112200Z 20004KT CAVOK 21/12 Q1014=

Extra information for SCAR:More info

Metar Taf Metar & Taf Last 4 Metars F.Rules Stats Wind Profile Meteogram Temp Stats Airport Information Weather charts Add Link Nearby VenuesMetar ALERT Operation Metar Decoded Social comments